Time;durP1;ratioP1;P1;durP2;ratioP2;P2;SDS_P1;SDS_P2;PMS_P1;PMS_P2;Temp;Humidity;BMP_temperature;BMP_pressure;BME280_temperature;BME280_humidity;BME280_pressure;Samples;Min_cycle;Max_cycle;Signal;HPM_P1;HPM_P2
2022/06/16 00:01:27;;;;;;;8.93;4.80;;;;;;;;;;5000939;28;20050;-82
2022/06/16 00:04:12;;;;;;;6.25;4.07;;;;;;;;;;5001430;28;20046;-83
2022/06/16 00:06:59;;;;;;;7.45;4.10;;;;;;;;;;4994475;28;20035;-83
2022/06/16 00:09:45;;;;;;;6.90;4.20;;;;;;;;;;5000916;28;20054;-83
2022/06/16 00:12:30;;;;;;;6.65;4.00;;;;;;;;;;5001326;28;20054;-83
2022/06/16 00:15:23;;;;;;;4.85;3.70;;;;;;;;;;4994360;28;20046;-82
2022/06/16 00:18:09;;;;;;;7.45;3.42;;;;;;;;;;5000765;28;20051;-82
2022/06/16 00:20:54;;;;;;;7.25;3.50;;;;;;;;;;5000346;28;20050;-80
2022/06/16 00:23:40;;;;;;;5.50;3.42;;;;;;;;;;5001115;28;20477;-82
2022/06/16 00:26:27;;;;;;;10.43;3.30;;;;;;;;;;5002899;28;20393;-84
2022/06/16 00:29:13;;;;;;;10.25;3.75;;;;;;;;;;4996489;28;20062;-84
2022/06/16 00:32:01;;;;;;;5.88;3.42;;;;;;;;;;5002681;28;20482;-83
2022/06/16 00:34:48;;;;;;;5.35;3.13;;;;;;;;;;4986693;28;20042;-82
2022/06/16 00:37:33;;;;;;;5.45;3.08;;;;;;;;;;5002577;28;20046;-84
2022/06/16 00:40:19;;;;;;;4.25;3.30;;;;;;;;;;4996769;28;20054;-83
2022/06/16 00:43:04;;;;;;;5.47;3.17;;;;;;;;;;4995313;28;20050;-83
2022/06/16 00:45:50;;;;;;;9.65;3.35;;;;;;;;;;4997543;28;20046;-81
2022/06/16 00:48:50;;;;;;;7.10;3.45;;;;;;;;;;4997706;28;20062;-86
2022/06/16 00:51:49;;;;;;;8.68;3.75;;;;;;;;;;5004310;28;20047;-82
2022/06/16 00:54:51;;;;;;;6.50;4.60;;;;;;;;;;4996952;28;20043;-85
2022/06/16 00:57:40;;;;;;;10.73;6.22;;;;;;;;;;4996605;28;20046;-79
2022/06/16 01:00:36;;;;;;;8.43;5.88;;;;;;;;;;5002548;28;20409;-81
2022/06/16 01:06:27;;;;;;;10.45;4.47;;;;;;;;;;4991207;28;20046;-83
2022/06/16 01:09:22;;;;;;;8.07;4.50;;;;;;;;;;5006221;28;20042;-84
2022/06/16 01:15:46;;;;;;;11.82;3.83;;;;;;;;;;4999728;28;20046;-83
2022/06/16 01:18:52;;;;;;;6.57;3.67;;;;;;;;;;5005582;28;20046;-82
2022/06/16 01:21:55;;;;;;;4.75;3.30;;;;;;;;;;4997893;28;20038;-85
2022/06/16 01:24:59;;;;;;;6.37;3.10;;;;;;;;;;4997053;28;20046;-83
2022/06/16 01:27:59;;;;;;;9.02;4.18;;;;;;;;;;4989487;28;20050;-83
2022/06/16 01:30:55;;;;;;;5.90;3.33;;;;;;;;;;4988604;28;20405;-85
2022/06/16 01:34:05;;;;;;;4.20;3.15;;;;;;;;;;5003828;28;20046;-83
2022/06/16 01:36:59;;;;;;;4.15;3.15;;;;;;;;;;4988878;28;20482;-82
2022/06/16 01:40:00;;;;;;;3.78;3.22;;;;;;;;;;4996804;28;20046;-85
2022/06/16 01:42:54;;;;;;;6.50;3.15;;;;;;;;;;4988609;28;20046;-82
2022/06/16 01:46:07;;;;;;;7.47;3.47;;;;;;;;;;4988269;28;20050;-84
2022/06/16 01:49:02;;;;;;;8.70;3.38;;;;;;;;;;4988891;28;20050;-84
2022/06/16 01:52:00;;;;;;;6.32;4.03;;;;;;;;;;4988875;28;20042;-81
2022/06/16 01:55:27;;;;;;;84.75;52.88;;;;;;;;;;4988893;28;20062;-81
2022/06/16 01:58:24;;;;;;;42.70;28.40;;;;;;;;;;4936496;29;20051;-81
2022/06/16 02:01:15;;;;;;;22.25;12.52;;;;;;;;;;5001882;28;20054;-80
2022/06/16 02:04:08;;;;;;;13.38;7.15;;;;;;;;;;5002216;28;20042;-80
2022/06/16 02:06:58;;;;;;;6.35;4.50;;;;;;;;;;4988289;28;20493;-81
2022/06/16 02:09:48;;;;;;;5.93;4.32;;;;;;;;;;4996511;28;20422;-80
2022/06/16 02:12:55;;;;;;;8.93;4.60;;;;;;;;;;4988352;28;20058;-83
2022/06/16 02:16:02;;;;;;;5.68;3.95;;;;;;;;;;4989206;28;20389;-83
2022/06/16 02:18:52;;;;;;;4.80;3.90;;;;;;;;;;4988214;28;20042;-85
2022/06/16 02:21:40;;;;;;;5.53;3.70;;;;;;;;;;4987751;28;20046;-82
2022/06/16 02:24:30;;;;;;;5.20;3.65;;;;;;;;;;4988223;28;20042;-82
2022/06/16 02:27:14;;;;;;;6.55;3.38;;;;;;;;;;4988776;28;20405;-85
2022/06/16 02:30:00;;;;;;;5.95;3.70;;;;;;;;;;4997046;28;20046;-82
2022/06/16 02:33:15;;;;;;;10.40;3.70;;;;;;;;;;4990865;28;20050;-84
2022/06/16 02:36:40;;;;;;;9.77;3.70;;;;;;;;;;5008146;28;20041;-81
2022/06/16 02:39:32;;;;;;;5.43;3.40;;;;;;;;;;4992601;28;20054;-83
2022/06/16 02:42:30;;;;;;;10.80;4.25;;;;;;;;;;4992704;28;20490;-84
2022/06/16 02:45:25;;;;;;;5.07;3.70;;;;;;;;;;4999982;28;20054;-83
2022/06/16 02:48:35;;;;;;;6.88;3.72;;;;;;;;;;4999294;28;20042;-84
2022/06/16 02:51:30;;;;;;;4.25;3.40;;;;;;;;;;4991103;28;20047;-82
2022/06/16 02:54:22;;;;;;;10.48;3.70;;;;;;;;;;5002544;28;20405;-83
2022/06/16 02:57:16;;;;;;;6.32;3.50;;;;;;;;;;4987245;28;20046;-81
2022/06/16 03:00:07;;;;;;;5.43;4.00;;;;;;;;;;4987829;28;20050;-81
2022/06/16 03:02:54;;;;;;;8.45;3.95;;;;;;;;;;4987852;28;20469;-84
2022/06/16 03:05:39;;;;;;;5.90;3.88;;;;;;;;;;4995346;28;20046;-85
2022/06/16 03:08:26;;;;;;;5.18;4.00;;;;;;;;;;4987519;28;20046;-84
2022/06/16 03:11:16;;;;;;;9.25;4.40;;;;;;;;;;4987063;28;20054;-82
2022/06/16 03:14:03;;;;;;;4.00;3.58;;;;;;;;;;5000871;28;20054;-84
2022/06/16 03:16:54;;;;;;;4.53;3.60;;;;;;;;;;4986656;28;20489;-81
2022/06/16 03:19:40;;;;;;;4.82;3.72;;;;;;;;;;4986815;28;20050;-82
2022/06/16 03:22:26;;;;;;;8.27;4.03;;;;;;;;;;4987213;28;20046;-81
2022/06/16 03:25:12;;;;;;;5.70;4.07;;;;;;;;;;4986999;28;20054;-83
2022/06/16 03:27:58;;;;;;;7.88;3.97;;;;;;;;;;4987529;28;20054;-83
2022/06/16 03:30:47;;;;;;;8.27;4.47;;;;;;;;;;4987818;28;20485;-84
2022/06/16 03:33:36;;;;;;;5.70;3.40;;;;;;;;;;5000640;28;20050;-83
2022/06/16 03:36:21;;;;;;;5.05;3.35;;;;;;;;;;4987482;28;20050;-82
2022/06/16 03:39:07;;;;;;;8.75;3.75;;;;;;;;;;4986703;28;20477;-82
2022/06/16 03:42:04;;;;;;;6.45;3.90;;;;;;;;;;4987097;28;20050;-83
2022/06/16 03:44:50;;;;;;;5.80;3.90;;;;;;;;;;4986689;28;20050;-83
2022/06/16 03:47:38;;;;;;;7.43;3.60;;;;;;;;;;4980256;28;20060;-81
2022/06/16 03:50:25;;;;;;;6.57;3.70;;;;;;;;;;4986536;28;20054;-84
2022/06/16 03:53:12;;;;;;;5.25;3.47;;;;;;;;;;4986593;28;20046;-83
2022/06/16 03:56:05;;;;;;;4.95;3.40;;;;;;;;;;4987210;28;20058;-82
2022/06/16 03:58:53;;;;;;;9.82;3.50;;;;;;;;;;4981614;28;20050;-83
2022/06/16 04:01:39;;;;;;;4.40;3.30;;;;;;;;;;4986819;28;20050;-85
2022/06/16 04:04:25;;;;;;;5.60;3.85;;;;;;;;;;5001188;28;20050;-81
2022/06/16 04:07:10;;;;;;;7.85;3.60;;;;;;;;;;5002308;28;20050;-81
2022/06/16 04:10:04;;;;;;;4.82;3.78;;;;;;;;;;4977829;28;20050;-82
2022/06/16 04:12:50;;;;;;;7.90;4.00;;;;;;;;;;4994237;28;20402;-81
2022/06/16 04:15:43;;;;;;;11.93;4.20;;;;;;;;;;4999573;28;20046;-84
2022/06/16 04:18:30;;;;;;;6.85;4.28;;;;;;;;;;4985676;28;20482;-84
2022/06/16 04:21:15;;;;;;;7.75;3.83;;;;;;;;;;5004101;28;20053;-85
2022/06/16 04:24:08;;;;;;;9.27;4.70;;;;;;;;;;5004634;28;20050;-86
2022/06/16 04:26:54;;;;;;;6.43;3.33;;;;;;;;;;4991798;28;20388;-83
2022/06/16 04:29:39;;;;;;;8.38;3.63;;;;;;;;;;5019492;28;20400;-84
2022/06/16 04:32:25;;;;;;;7.47;3.75;;;;;;;;;;5014211;28;20037;-84
2022/06/16 04:35:12;;;;;;;9.45;3.88;;;;;;;;;;5006353;28;20047;-84
2022/06/16 04:38:27;;;;;;;9.07;4.05;;;;;;;;;;4996471;28;20051;-86
2022/06/16 04:41:16;;;;;;;10.23;4.25;;;;;;;;;;5022791;28;20046;-84
2022/06/16 04:44:03;;;;;;;8.27;3.53;;;;;;;;;;5023299;28;20049;-86
2022/06/16 04:46:48;;;;;;;7.55;3.72;;;;;;;;;;5013114;28;20046;-85
2022/06/16 04:49:35;;;;;;;5.38;3.30;;;;;;;;;;4997645;28;20408;-83
2022/06/16 04:52:21;;;;;;;7.65;3.33;;;;;;;;;;5006675;28;20046;-82
2022/06/16 04:55:11;;;;;;;6.38;3.28;;;;;;;;;;4999827;28;20417;-82
2022/06/16 04:58:03;;;;;;;9.32;3.45;;;;;;;;;;4984912;28;20046;-85
2022/06/16 05:01:00;;;;;;;6.47;3.10;;;;;;;;;;5002536;28;20050;-82
2022/06/16 05:03:55;;;;;;;4.05;2.80;;;;;;;;;;4987572;28;20482;-85
2022/06/16 05:06:46;;;;;;;4.22;2.85;;;;;;;;;;4969150;28;20046;-85
2022/06/16 05:09:54;;;;;;;9.55;3.35;;;;;;;;;;4977119;28;20047;-86
2022/06/16 05:12:58;;;;;;;8.13;3.30;;;;;;;;;;4986525;28;20050;-84
2022/06/16 05:15:55;;;;;;;14.02;2.92;;;;;;;;;;4987014;28;20050;-83
2022/06/16 05:18:56;;;;;;;4.70;3.10;;;;;;;;;;4985119;28;20055;-86
2022/06/16 05:22:05;;;;;;;3.85;2.88;;;;;;;;;;4978382;28;20039;-83
2022/06/16 05:25:19;;;;;;;6.68;3.20;;;;;;;;;;4933816;28;20043;-83
2022/06/16 05:28:36;;;;;;;5.97;2.92;;;;;;;;;;4974333;28;20051;-85
2022/06/16 05:31:46;;;;;;;6.63;2.75;;;;;;;;;;4957827;28;20051;-85
2022/06/16 05:35:04;;;;;;;6.35;2.88;;;;;;;;;;4991128;28;20034;-84
2022/06/16 05:38:09;;;;;;;6.40;2.60;;;;;;;;;;4989131;28;20046;-84
2022/06/16 05:41:07;;;;;;;9.15;2.97;;;;;;;;;;4990981;28;20050;-83
2022/06/16 05:44:11;;;;;;;12.35;3.10;;;;;;;;;;4996699;28;20042;-84
2022/06/16 05:47:08;;;;;;;7.13;2.50;;;;;;;;;;4989064;28;20050;-82
2022/06/16 05:49:58;;;;;;;7.57;3.03;;;;;;;;;;5002254;28;20502;-83
2022/06/16 05:52:44;;;;;;;4.40;2.78;;;;;;;;;;4988419;28;20042;-84
2022/06/16 05:55:44;;;;;;;4.70;2.58;;;;;;;;;;4988894;28;20050;-84
2022/06/16 05:58:30;;;;;;;4.25;2.42;;;;;;;;;;4998376;28;20054;-82
2022/06/16 06:01:16;;;;;;;3.38;2.42;;;;;;;;;;4989024;28;20046;-82
2022/06/16 06:04:01;;;;;;;3.65;2.20;;;;;;;;;;5002234;28;20046;-83
2022/06/16 06:06:47;;;;;;;6.35;2.45;;;;;;;;;;4988606;28;20050;-85
2022/06/16 06:18:53;;;;;;;4.15;2.60;;;;;;;;;;5003262;28;20050;-84
2022/06/16 06:21:58;;;;;;;5.60;2.70;;;;;;;;;;4988184;28;20046;-83
2022/06/16 06:24:49;;;;;;;6.78;2.78;;;;;;;;;;5003186;28;20058;-82
2022/06/16 06:27:46;;;;;;;3.58;2.63;;;;;;;;;;4988161;28;20042;-87
2022/06/16 06:30:34;;;;;;;3.90;2.60;;;;;;;;;;5002686;28;20058;-86
2022/06/16 06:33:20;;;;;;;5.40;2.70;;;;;;;;;;5002186;28;20050;-82
2022/06/16 06:36:05;;;;;;;9.30;3.13;;;;;;;;;;4995561;28;20042;-82
2022/06/16 06:38:51;;;;;;;7.45;2.60;;;;;;;;;;4987880;28;20054;-85
2022/06/16 06:41:36;;;;;;;9.57;3.28;;;;;;;;;;5002277;28;20478;-83
2022/06/16 06:44:22;;;;;;;6.03;2.70;;;;;;;;;;4995779;28;20042;-85
2022/06/16 06:47:14;;;;;;;5.88;2.55;;;;;;;;;;4995436;28;20046;-82
2022/06/16 06:50:01;;;;;;;5.40;3.10;;;;;;;;;;4995702;28;20474;-85
2022/06/16 06:52:46;;;;;;;8.95;2.72;;;;;;;;;;5002446;28;20050;-84
2022/06/16 06:55:31;;;;;;;6.85;3.25;;;;;;;;;;5002381;28;20046;-83
2022/06/16 06:58:19;;;;;;;5.43;2.40;;;;;;;;;;4999117;28;20055;-82
2022/06/16 07:01:06;;;;;;;6.45;2.90;;;;;;;;;;5001669;28;20050;-85
2022/06/16 07:03:51;;;;;;;5.90;2.58;;;;;;;;;;5002506;28;20042;-81
2022/06/16 07:06:38;;;;;;;57.90;5.78;;;;;;;;;;5002203;28;20401;-84
2022/06/16 07:09:23;;;;;;;6.68;2.58;;;;;;;;;;4995804;28;20054;-83
2022/06/16 07:12:15;;;;;;;5.38;2.63;;;;;;;;;;4990288;28;20055;-83
2022/06/16 07:15:01;;;;;;;3.70;2.00;;;;;;;;;;4982013;28;20047;-84
2022/06/16 07:17:48;;;;;;;4.07;2.05;;;;;;;;;;4982067;28;20054;-84
2022/06/16 07:20:33;;;;;;;4.05;2.30;;;;;;;;;;4982601;28;20046;-84
2022/06/16 07:23:20;;;;;;;5.10;2.47;;;;;;;;;;4996387;28;20058;-87
2022/06/16 07:26:05;;;;;;;6.22;2.65;;;;;;;;;;5001316;28;20054;-84
2022/06/16 07:28:51;;;;;;;4.13;2.50;;;;;;;;;;5001559;28;20042;-83
2022/06/16 07:31:36;;;;;;;3.90;2.40;;;;;;;;;;5001211;28;20046;-82
2022/06/16 07:34:21;;;;;;;5.28;2.45;;;;;;;;;;5001277;28;20054;-85
2022/06/16 07:37:07;;;;;;;6.82;2.58;;;;;;;;;;4994253;28;20409;-83
2022/06/16 07:39:53;;;;;;;4.18;2.53;;;;;;;;;;4998071;28;20042;-82
2022/06/16 07:42:38;;;;;;;7.50;2.80;;;;;;;;;;4995498;28;20038;-82
2022/06/16 07:45:24;;;;;;;8.73;2.65;;;;;;;;;;5001154;28;20050;-82
2022/06/16 07:48:09;;;;;;;5.80;2.88;;;;;;;;;;4995245;28;20050;-85
2022/06/16 07:50:55;;;;;;;6.95;3.05;;;;;;;;;;5004821;28;20050;-83
2022/06/16 07:53:40;;;;;;;4.93;2.83;;;;;;;;;;5002959;28;20042;-82
2022/06/16 07:56:26;;;;;;;6.82;2.67;;;;;;;;;;5004103;28;20046;-84
2022/06/16 07:59:13;;;;;;;5.28;2.78;;;;;;;;;;4997047;28;20054;-85
2022/06/16 08:01:59;;;;;;;4.90;2.60;;;;;;;;;;5001359;28;20051;-86
2022/06/16 08:04:44;;;;;;;7.32;2.80;;;;;;;;;;5005903;28;20038;-86
2022/06/16 08:07:29;;;;;;;4.78;2.30;;;;;;;;;;4998740;28;20054;-86
2022/06/16 08:10:22;;;;;;;9.73;2.83;;;;;;;;;;5006506;28;20401;-84
2022/06/16 08:13:22;;;;;;;6.20;2.67;;;;;;;;;;5001284;28;20038;-83
2022/06/16 08:16:07;;;;;;;6.97;2.95;;;;;;;;;;5002993;28;20054;-85
2022/06/16 08:18:53;;;;;;;6.72;3.25;;;;;;;;;;5001701;28;20043;-85
2022/06/16 08:21:38;;;;;;;4.72;2.60;;;;;;;;;;5009890;28;20050;-85
2022/06/16 08:24:24;;;;;;;6.47;2.83;;;;;;;;;;5003613;28;20058;-83
2022/06/16 08:27:11;;;;;;;5.05;3.63;;;;;;;;;;5008846;28;20046;-83
2022/06/16 08:29:57;;;;;;;7.75;3.13;;;;;;;;;;5000663;28;20050;-85
2022/06/16 08:32:42;;;;;;;7.63;2.80;;;;;;;;;;5000877;28;20055;-83
2022/06/16 08:35:27;;;;;;;5.65;2.70;;;;;;;;;;5000144;28;20046;-83
2022/06/16 08:38:14;;;;;;;7.93;2.88;;;;;;;;;;5000067;28;20047;-84
2022/06/16 08:41:12;;;;;;;5.70;2.78;;;;;;;;;;4999313;28;20046;-84
2022/06/16 08:44:08;;;;;;;3.33;2.15;;;;;;;;;;4998130;28;20046;-83
2022/06/16 08:47:20;;;;;;;8.05;2.63;;;;;;;;;;5004164;28;20050;-83
2022/06/16 08:50:41;;;;;;;6.70;2.20;;;;;;;;;;5008228;28;20042;-84
2022/06/16 08:58:03;;;;;;;5.82;3.00;;;;;;;;;;4997185;28;20050;-83
2022/06/16 09:01:24;;;;;;;6.57;2.85;;;;;;;;;;4997698;28;20047;-83
2022/06/16 09:08:48;;;;;;;4.20;2.30;;;;;;;;;;4943338;28;20052;-82
2022/06/16 09:12:00;;;;;;;7.07;2.80;;;;;;;;;;4946856;28;20053;-82
2022/06/16 09:15:24;;;;;;;8.15;2.40;;;;;;;;;;4989992;28;20042;-82
2022/06/16 09:18:38;;;;;;;5.88;2.67;;;;;;;;;;4995435;28;20042;-82
2022/06/16 09:21:33;;;;;;;5.95;2.30;;;;;;;;;;5003580;28;20050;-83
2022/06/16 09:24:38;;;;;;;6.18;1.92;;;;;;;;;;4996027;28;20046;-82
2022/06/16 09:27:45;;;;;;;4.13;2.05;;;;;;;;;;5004693;28;20054;-86
2022/06/16 09:30:37;;;;;;;3.92;2.35;;;;;;;;;;5005949;28;20046;-84
2022/06/16 09:33:40;;;;;;;2.63;1.92;;;;;;;;;;4996945;28;20046;-83
2022/06/16 09:36:31;;;;;;;6.53;2.50;;;;;;;;;;4992778;28;20490;-85
2022/06/16 09:39:24;;;;;;;5.80;2.40;;;;;;;;;;4995121;28;20042;-83
2022/06/16 09:42:35;;;;;;;8.43;2.60;;;;;;;;;;4987279;28;20046;-84
2022/06/16 09:45:30;;;;;;;23.60;3.22;;;;;;;;;;5002538;28;20406;-84
2022/06/16 09:48:29;;;;;;;;;;;;;;;;;;5003962;28;20401;-82
2022/06/16 09:51:24;;;;;;;4.18;2.08;;;;;;;;;;5002670;28;19914;-82
2022/06/16 09:54:24;;;;;;;5.50;2.20;;;;;;;;;;4996733;28;20397;-82
2022/06/16 09:57:23;;;;;;;4.95;1.90;;;;;;;;;;5002568;28;20043;-82
2022/06/16 10:00:14;;;;;;;3.95;1.90;;;;;;;;;;5002731;28;20050;-82
2022/06/16 10:03:11;;;;;;;6.47;2.35;;;;;;;;;;5003410;28;20039;-82
2022/06/16 10:06:12;;;;;;;6.85;2.03;;;;;;;;;;5002829;28;20050;-82
2022/06/16 10:09:18;;;;;;;6.70;2.25;;;;;;;;;;4996635;28;20054;-81
2022/06/16 10:12:32;;;;;;;4.05;2.15;;;;;;;;;;5002995;28;20050;-82
2022/06/16 10:15:31;;;;;;;4.13;2.10;;;;;;;;;;5003334;28;20054;-82
2022/06/16 10:18:17;;;;;;;5.22;2.25;;;;;;;;;;4989372;28;20039;-80
2022/06/16 10:21:07;;;;;;;4.43;2.22;;;;;;;;;;4999198;28;20046;-80
2022/06/16 10:23:58;;;;;;;4.32;2.17;;;;;;;;;;4996780;28;20054;-82
2022/06/16 10:26:43;;;;;;;3.53;2.22;;;;;;;;;;5002264;28;20042;-81
2022/06/16 10:29:31;;;;;;;5.40;2.10;;;;;;;;;;4997291;28;20474;-82
2022/06/16 10:32:34;;;;;;;6.22;2.10;;;;;;;;;;5005645;28;20050;-81
2022/06/16 10:35:21;;;;;;;3.75;2.10;;;;;;;;;;5005520;28;20046;-82
2022/06/16 10:38:12;;;;;;;7.82;2.50;;;;;;;;;;4986515;28;20047;-83
2022/06/16 10:41:03;;;;;;;4.10;2.40;;;;;;;;;;4983306;28;20051;-82
2022/06/16 10:43:53;;;;;;;5.00;2.05;;;;;;;;;;4976368;28;20055;-87
2022/06/16 10:46:49;;;;;;;5.13;2.22;;;;;;;;;;4968081;28;20059;-86
2022/06/16 10:49:38;;;;;;;3.85;2.08;;;;;;;;;;4976620;28;20486;-83
2022/06/16 10:52:32;;;;;;;7.28;2.50;;;;;;;;;;4988053;28;20054;-83
2022/06/16 10:55:25;;;;;;;6.60;2.38;;;;;;;;;;5014253;28;20050;-81
2022/06/16 10:58:26;;;;;;;7.13;2.30;;;;;;;;;;5002420;28;20393;-81
2022/06/16 11:01:24;;;;;;;5.35;2.35;;;;;;;;;;5005079;28;20050;-81
2022/06/16 11:04:16;;;;;;;7.38;2.50;;;;;;;;;;5014579;28;20054;-80
2022/06/16 11:07:03;;;;;;;11.50;2.20;;;;;;;;;;4995725;28;20050;-81
2022/06/16 11:09:49;;;;;;;4.88;2.05;;;;;;;;;;5001359;28;20043;-81
2022/06/16 11:12:41;;;;;;;5.63;2.55;;;;;;;;;;5001678;28;20058;-82
2022/06/16 11:15:49;;;;;;;6.55;2.20;;;;;;;;;;5000537;28;20054;-82
2022/06/16 11:18:37;;;;;;;3.97;2.22;;;;;;;;;;5001418;28;20401;-80
2022/06/16 11:21:28;;;;;;;6.45;2.63;;;;;;;;;;5006889;28;20049;-82
2022/06/16 11:24:31;;;;;;;6.22;2.22;;;;;;;;;;5004571;28;20046;-82
2022/06/16 11:27:16;;;;;;;3.70;2.05;;;;;;;;;;4995231;28;20043;-81
2022/06/16 11:30:23;;;;;;;5.18;2.15;;;;;;;;;;4996106;28;20038;-81
2022/06/16 11:36:40;;;;;;;5.72;2.30;;;;;;;;;;4982037;28;20043;-82
2022/06/16 11:39:46;;;;;;;3.92;2.05;;;;;;;;;;4978236;28;20498;-83
2022/06/16 11:42:59;;;;;;;5.18;2.40;;;;;;;;;;4996559;28;20393;-83
2022/06/16 11:46:06;;;;;;;4.55;1.95;;;;;;;;;;4993159;28;20042;-83
2022/06/16 11:49:03;;;;;;;6.13;2.30;;;;;;;;;;5001165;28;20042;-82
2022/06/16 11:51:58;;;;;;;4.10;2.15;;;;;;;;;;5000916;28;20054;-83
2022/06/16 11:54:57;;;;;;;3.80;1.98;;;;;;;;;;4990424;28;20054;-81
2022/06/16 11:57:51;;;;;;;4.30;1.83;;;;;;;;;;4984200;28;20042;-82
2022/06/16 12:00:46;;;;;;;4.78;2.25;;;;;;;;;;4994247;28;20038;-83
2022/06/16 12:03:50;;;;;;;4.70;2.17;;;;;;;;;;4981459;28;20485;-83
2022/06/16 12:06:45;;;;;;;3.92;2.00;;;;;;;;;;4982032;28;20051;-84
2022/06/16 12:09:46;;;;;;;3.47;2.20;;;;;;;;;;4987244;28;20046;-82
2022/06/16 12:12:54;;;;;;;2.05;1.70;;;;;;;;;;5000386;28;20050;-83
2022/06/16 12:15:51;;;;;;;4.05;2.30;;;;;;;;;;4986352;28;20046;-81
2022/06/16 12:18:57;;;;;;;7.38;2.00;;;;;;;;;;5000166;28;20405;-83
2022/06/16 12:21:54;;;;;;;3.65;1.92;;;;;;;;;;5001509;28;20050;-83
2022/06/16 12:25:05;;;;;;;3.35;2.35;;;;;;;;;;4988326;28;20054;-81
2022/06/16 12:28:00;;;;;;;6.07;2.50;;;;;;;;;;5002039;28;20453;-83
2022/06/16 12:30:52;;;;;;;;;;;;;;;;;;5001467;28;20481;-81
2022/06/16 12:33:50;;;;;;;2.65;2.00;;;;;;;;;;4994433;28;19918;-83
2022/06/16 12:36:43;;;;;;;4.82;2.58;;;;;;;;;;4991632;28;20058;-81
2022/06/16 12:39:46;;;;;;;4.75;2.10;;;;;;;;;;5005438;28;20042;-82
2022/06/16 12:42:40;;;;;;;3.25;2.00;;;;;;;;;;5020600;28;20046;-82
2022/06/16 12:45:33;;;;;;;3.37;2.00;;;;;;;;;;5012887;28;20046;-83
2022/06/16 12:48:27;;;;;;;2.60;2.00;;;;;;;;;;4990440;28;20501;-83
2022/06/16 12:51:18;;;;;;;4.38;2.00;;;;;;;;;;4981318;28;20047;-83
2022/06/16 12:54:13;;;;;;;5.20;1.90;;;;;;;;;;4999689;28;20466;-83
2022/06/16 12:57:06;;;;;;;3.10;1.67;;;;;;;;;;5001798;28;20066;-83
2022/06/16 13:00:18;;;;;;;3.17;1.77;;;;;;;;;;5005109;28;20046;-82
2022/06/16 13:03:24;;;;;;;4.03;1.75;;;;;;;;;;5004486;28;20647;-81
2022/06/16 13:06:11;;;;;;;2.80;1.90;;;;;;;;;;5004656;28;20062;-83
2022/06/16 13:08:59;;;;;;;6.22;2.22;;;;;;;;;;4989790;28;20050;-83
2022/06/16 13:11:47;;;;;;;6.10;1.88;;;;;;;;;;5006166;28;20389;-84
2022/06/16 13:14:57;;;;;;;4.57;2.10;;;;;;;;;;5005805;28;20050;-82
2022/06/16 13:18:20;;;;;;;3.20;2.00;;;;;;;;;;4983872;28;20043;-83
2022/06/16 13:21:06;;;;;;;2.95;1.90;;;;;;;;;;4977782;28;20046;-85
2022/06/16 13:24:12;;;;;;;5.00;2.10;;;;;;;;;;4998856;28;20477;-84
2022/06/16 13:27:09;;;;;;;7.20;2.13;;;;;;;;;;4995859;28;20050;-84
2022/06/16 13:29:59;;;;;;;31.45;3.70;;;;;;;;;;5003594;28;20117;-83
2022/06/16 13:32:47;;;;;;;5.97;2.20;;;;;;;;;;5002653;28;20050;-83
2022/06/16 13:35:38;;;;;;;4.15;1.90;;;;;;;;;;5001499;28;20047;-81
2022/06/16 13:38:37;;;;;;;5.40;2.05;;;;;;;;;;5002695;28;20050;-82
2022/06/16 13:41:45;;;;;;;2.33;1.90;;;;;;;;;;5000170;28;20050;-82
2022/06/16 13:44:30;;;;;;;7.63;2.28;;;;;;;;;;4996552;28;20043;-83
2022/06/16 13:47:15;;;;;;;10.57;2.45;;;;;;;;;;4993524;28;20046;-82
2022/06/16 13:50:03;;;;;;;5.97;2.20;;;;;;;;;;4984300;28;20489;-82
2022/06/16 13:53:04;;;;;;;8.55;2.20;;;;;;;;;;4994598;28;20050;-81
2022/06/16 13:56:00;;;;;;;4.18;2.10;;;;;;;;;;4993382;28;20046;-81
2022/06/16 13:58:52;;;;;;;3.83;2.00;;;;;;;;;;4981863;28;20047;-81
2022/06/16 14:02:15;;;;;;;6.45;2.30;;;;;;;;;;5003129;28;20405;-80
2022/06/16 14:05:05;;;;;;;2.83;1.95;;;;;;;;;;4994031;28;20493;-80
2022/06/16 14:07:54;;;;;;;6.20;2.25;;;;;;;;;;5007031;28;20050;-80
2022/06/16 14:10:53;;;;;;;3.17;2.13;;;;;;;;;;5009777;28;20485;-80
2022/06/16 14:13:45;;;;;;;4.82;2.53;;;;;;;;;;5001742;28;20046;-81
2022/06/16 14:16:52;;;;;;;5.75;2.17;;;;;;;;;;5007586;28;20509;-81
2022/06/16 14:19:40;;;;;;;3.85;2.00;;;;;;;;;;5000405;28;20046;-82
2022/06/16 14:22:29;;;;;;;4.22;2.20;;;;;;;;;;5008024;28;20042;-82
2022/06/16 14:25:23;;;;;;;6.45;2.45;;;;;;;;;;5004084;28;20042;-84
2022/06/16 14:28:13;;;;;;;4.75;2.15;;;;;;;;;;5004390;28;20050;-84
2022/06/16 14:31:07;;;;;;;3.45;2.00;;;;;;;;;;5000237;28;20050;-83
2022/06/16 14:34:23;;;;;;;4.43;2.45;;;;;;;;;;5007618;28;20054;-82
2022/06/16 14:37:17;;;;;;;4.05;2.10;;;;;;;;;;5006139;28;20050;-83
2022/06/16 14:40:14;;;;;;;4.40;2.20;;;;;;;;;;4997919;28;20397;-82
2022/06/16 14:43:09;;;;;;;5.93;2.35;;;;;;;;;;4995764;28;20054;-83
2022/06/16 14:46:05;;;;;;;5.03;2.30;;;;;;;;;;4988887;28;20042;-83
2022/06/16 14:48:57;;;;;;;5.70;2.17;;;;;;;;;;5002724;28;20046;-82
2022/06/16 14:51:46;;;;;;;7.10;2.17;;;;;;;;;;5012334;28;20054;-84
2022/06/16 14:54:38;;;;;;;6.10;2.22;;;;;;;;;;5004519;28;20050;-81
2022/06/16 14:57:27;;;;;;;3.55;2.20;;;;;;;;;;5011841;28;20054;-81
2022/06/16 15:00:23;;;;;;;5.70;2.40;;;;;;;;;;5013924;28;20046;-83
2022/06/16 15:03:19;;;;;;;3.40;2.10;;;;;;;;;;5021438;28;20190;-82
2022/06/16 15:06:07;;;;;;;4.47;2.20;;;;;;;;;;5009210;28;20050;-81
2022/06/16 15:08:57;;;;;;;3.08;2.10;;;;;;;;;;5012579;28;20050;-82
2022/06/16 15:11:43;;;;;;;3.15;2.15;;;;;;;;;;5006634;28;20058;-83
2022/06/16 15:14:30;;;;;;;5.78;2.50;;;;;;;;;;4985627;28;20486;-83
2022/06/16 15:20:23;;;;;;;6.00;2.25;;;;;;;;;;4984907;28;20046;-83
2022/06/16 15:23:09;;;;;;;3.58;2.20;;;;;;;;;;4991701;28;20050;-86
2022/06/16 15:25:58;;;;;;;4.05;2.20;;;;;;;;;;4991679;28;20058;-82
2022/06/16 15:28:53;;;;;;;5.70;2.40;;;;;;;;;;4995941;28;20038;-83
2022/06/16 15:31:48;;;;;;;;;;;;;;;;;;5004276;28;20038;-83
2022/06/16 15:37:38;;;;;;;4.80;2.70;;;;;;;;;;4998858;28;20042;-83
2022/06/16 15:40:31;;;;;;;3.50;2.33;;;;;;;;;;5001618;28;20042;-82
2022/06/16 15:43:19;;;;;;;4.72;2.42;;;;;;;;;;5000117;28;20149;-83
2022/06/16 15:46:09;;;;;;;4.32;2.15;;;;;;;;;;5001202;28;20050;-85
2022/06/16 15:48:58;;;;;;;4.28;2.47;;;;;;;;;;5000937;28;20481;-83
2022/06/16 15:51:43;;;;;;;2.47;1.95;;;;;;;;;;4994906;28;20477;-84
2022/06/16 15:54:33;;;;;;;6.05;2.72;;;;;;;;;;4990635;28;20050;-82
2022/06/16 15:57:19;;;;;;;4.10;2.30;;;;;;;;;;5002701;28;20042;-82
2022/06/16 16:00:09;;;;;;;5.15;2.45;;;;;;;;;;4996595;28;20043;-82
2022/06/16 16:03:01;;;;;;;6.90;2.40;;;;;;;;;;4994291;28;20397;-82
2022/06/16 16:05:48;;;;;;;2.97;1.95;;;;;;;;;;4994287;28;20042;-83
2022/06/16 16:08:34;;;;;;;5.55;2.50;;;;;;;;;;5000700;28;20042;-84
2022/06/16 16:11:23;;;;;;;4.03;2.80;;;;;;;;;;4994186;28;20397;-83
2022/06/16 16:14:11;;;;;;;4.43;2.40;;;;;;;;;;5000951;28;20042;-83
2022/06/16 16:17:04;;;;;;;5.30;2.35;;;;;;;;;;4985549;28;20046;-83
2022/06/16 16:20:02;;;;;;;8.85;2.75;;;;;;;;;;4993713;28;20477;-83
2022/06/16 16:23:17;;;;;;;6.35;2.78;;;;;;;;;;4994101;28;20047;-83
2022/06/16 16:26:13;;;;;;;5.43;2.55;;;;;;;;;;4993682;28;20050;-83
2022/06/16 16:29:05;;;;;;;3.33;2.17;;;;;;;;;;5000714;28;20050;-84
2022/06/16 16:32:09;;;;;;;4.85;2.40;;;;;;;;;;4996711;28;20050;-82
2022/06/16 16:34:59;;;;;;;6.30;2.33;;;;;;;;;;4994414;28;20051;-83
2022/06/16 16:37:47;;;;;;;5.55;2.20;;;;;;;;;;4989083;28;20482;-83
2022/06/16 16:43:43;;;;;;;4.63;2.30;;;;;;;;;;5023937;28;20050;-85
2022/06/16 16:46:29;;;;;;;5.53;2.38;;;;;;;;;;5005540;28;20046;-84
2022/06/16 16:49:15;;;;;;;6.47;2.00;;;;;;;;;;5005328;28;20046;-85
2022/06/16 16:52:03;;;;;;;6.05;2.28;;;;;;;;;;4998561;28;20469;-85
2022/06/16 16:55:22;;;;;;;3.60;2.38;;;;;;;;;;4975545;28;20035;-83
2022/06/16 16:58:07;;;;;;;3.55;2.42;;;;;;;;;;5007160;28;20054;-85
2022/06/16 17:00:57;;;;;;;4.20;2.50;;;;;;;;;;5008969;28;20050;-85
2022/06/16 17:03:46;;;;;;;9.32;2.40;;;;;;;;;;5003927;28;20042;-85
2022/06/16 17:06:46;;;;;;;6.10;2.30;;;;;;;;;;5004311;28;20050;-84
2022/06/16 17:09:36;;;;;;;10.65;2.50;;;;;;;;;;5004920;28;20046;-84
2022/06/16 17:12:30;;;;;;;6.15;2.17;;;;;;;;;;4997139;28;20050;-85
2022/06/16 17:15:21;;;;;;;7.88;2.83;;;;;;;;;;4990090;28;20046;-84
2022/06/16 17:18:22;;;;;;;3.67;2.42;;;;;;;;;;5009154;28;20053;-85
2022/06/16 17:21:16;;;;;;;5.88;2.90;;;;;;;;;;4989071;28;20050;-84
2022/06/16 17:24:01;;;;;;;9.32;2.85;;;;;;;;;;5003127;28;20042;-84
2022/06/16 17:26:50;;;;;;;6.90;2.85;;;;;;;;;;5003150;28;20046;-85
2022/06/16 17:29:38;;;;;;;5.72;3.08;;;;;;;;;;4985306;28;20039;-85
2022/06/16 17:32:29;;;;;;;7.28;3.88;;;;;;;;;;4995792;28;20046;-84
2022/06/16 17:35:27;;;;;;;18.55;6.97;;;;;;;;;;4996883;28;20042;-86
2022/06/16 17:38:19;;;;;;;27.58;10.43;;;;;;;;;;4997099;28;20045;-84
2022/06/16 17:41:12;;;;;;;27.85;10.52;;;;;;;;;;5013976;28;20042;-83
2022/06/16 17:43:57;;;;;;;33.55;11.55;;;;;;;;;;5021754;28;20034;-84
2022/06/16 17:46:42;;;;;;;40.08;13.35;;;;;;;;;;5006478;28;20050;-84
2022/06/16 17:49:27;;;;;;;39.35;13.75;;;;;;;;;;5002971;28;20046;-82
2022/06/16 18:01:26;;;;;;;39.72;16.00;;;;;;;;;;4992539;28;20034;-83
2022/06/16 18:04:11;;;;;;;40.28;16.50;;;;;;;;;;5011472;28;20401;-82
2022/06/16 18:06:59;;;;;;;39.28;14.15;;;;;;;;;;5003412;28;20046;-82